sensor_id;sensor_type;location;lat;lon;timestamp;P1;durP1;ratioP1;P2;durP2;ratioP2
16242;SDS011;11719;51.052;6.982;2023-06-19T00:02:21;2.73;;;2.33;;
16242;SDS011;11719;51.052;6.982;2023-06-19T00:04:47;2.67;;;2.03;;
16242;SDS011;11719;51.052;6.982;2023-06-19T00:07:13;3.47;;;2.43;;
16242;SDS011;11719;51.052;6.982;2023-06-19T00:09:38;2.67;;;2.43;;
16242;SDS011;11719;51.052;6.982;2023-06-19T00:12:04;4.10;;;2.57;;
16242;SDS011;11719;51.052;6.982;2023-06-19T00:14:31;3.27;;;2.27;;
16242;SDS011;11719;51.052;6.982;2023-06-19T00:16:57;2.90;;;2.20;;
16242;SDS011;11719;51.052;6.982;2023-06-19T00:19:25;3.03;;;2.10;;
16242;SDS011;11719;51.052;6.982;2023-06-19T00:21:51;3.93;;;2.07;;
16242;SDS011;11719;51.052;6.982;2023-06-19T00:24:21;3.23;;;2.37;;
16242;SDS011;11719;51.052;6.982;2023-06-19T00:26:48;2.67;;;2.10;;
16242;SDS011;11719;51.052;6.982;2023-06-19T00:29:14;3.23;;;2.27;;
16242;SDS011;11719;51.052;6.982;2023-06-19T00:31:40;3.20;;;1.97;;
16242;SDS011;11719;51.052;6.982;2023-06-19T00:34:06;2.73;;;1.80;;
16242;SDS011;11719;51.052;6.982;2023-06-19T00:36:31;2.47;;;1.77;;
16242;SDS011;11719;51.052;6.982;2023-06-19T00:38:57;3.17;;;2.23;;
16242;SDS011;11719;51.052;6.982;2023-06-19T00:41:23;2.27;;;2.00;;
16242;SDS011;11719;51.052;6.982;2023-06-19T00:43:51;2.90;;;2.20;;
16242;SDS011;11719;51.052;6.982;2023-06-19T00:46:19;4.43;;;2.50;;
16242;SDS011;11719;51.052;6.982;2023-06-19T00:48:44;2.57;;;2.00;;
16242;SDS011;11719;51.052;6.982;2023-06-19T00:51:10;4.10;;;2.70;;
16242;SDS011;11719;51.052;6.982;2023-06-19T00:53:36;3.07;;;2.43;;
16242;SDS011;11719;51.052;6.982;2023-06-19T00:56:02;4.67;;;2.60;;
16242;SDS011;11719;51.052;6.982;2023-06-19T00:58:29;2.47;;;2.07;;
16242;SDS011;11719;51.052;6.982;2023-06-19T01:00:55;3.50;;;2.53;;
16242;SDS011;11719;51.052;6.982;2023-06-19T01:03:22;2.70;;;2.00;;
16242;SDS011;11719;51.052;6.982;2023-06-19T01:05:48;4.73;;;2.33;;
16242;SDS011;11719;51.052;6.982;2023-06-19T01:11:16;5.17;;;2.73;;
16242;SDS011;11719;51.052;6.982;2023-06-19T01:13:57;3.07;;;2.10;;
16242;SDS011;11719;51.052;6.982;2023-06-19T01:16:26;2.83;;;2.17;;
16242;SDS011;11719;51.052;6.982;2023-06-19T01:18:55;2.53;;;2.10;;
16242;SDS011;11719;51.052;6.982;2023-06-19T01:21:21;2.83;;;2.27;;
16242;SDS011;11719;51.052;6.982;2023-06-19T01:23:47;2.70;;;2.30;;
16242;SDS011;11719;51.052;6.982;2023-06-19T01:26:13;3.30;;;1.77;;
16242;SDS011;11719;51.052;6.982;2023-06-19T01:28:41;4.60;;;2.80;;
16242;SDS011;11719;51.052;6.982;2023-06-19T01:31:13;4.77;;;2.93;;
16242;SDS011;11719;51.052;6.982;2023-06-19T01:33:45;3.60;;;2.83;;
16242;SDS011;11719;51.052;6.982;2023-06-19T01:36:15;3.63;;;3.03;;
16242;SDS011;11719;51.052;6.982;2023-06-19T01:38:44;3.13;;;2.10;;
16242;SDS011;11719;51.052;6.982;2023-06-19T01:41:12;3.13;;;2.17;;
16242;SDS011;11719;51.052;6.982;2023-06-19T01:43:40;4.23;;;2.60;;
16242;SDS011;11719;51.052;6.982;2023-06-19T01:46:07;2.93;;;2.30;;
16242;SDS011;11719;51.052;6.982;2023-06-19T01:48:34;2.67;;;2.23;;
16242;SDS011;11719;51.052;6.982;2023-06-19T01:51:01;2.67;;;1.87;;
16242;SDS011;11719;51.052;6.982;2023-06-19T01:53:29;2.57;;;2.03;;
16242;SDS011;11719;51.052;6.982;2023-06-19T01:55:57;2.43;;;1.90;;
16242;SDS011;11719;51.052;6.982;2023-06-19T01:58:25;3.00;;;2.03;;
16242;SDS011;11719;51.052;6.982;2023-06-19T02:00:51;2.90;;;2.03;;
16242;SDS011;11719;51.052;6.982;2023-06-19T02:03:17;2.57;;;2.20;;
16242;SDS011;11719;51.052;6.982;2023-06-19T02:05:44;2.37;;;1.90;;
16242;SDS011;11719;51.052;6.982;2023-06-19T02:08:10;3.30;;;2.50;;
16242;SDS011;11719;51.052;6.982;2023-06-19T02:10:36;4.40;;;3.03;;
16242;SDS011;11719;51.052;6.982;2023-06-19T02:13:02;4.27;;;3.40;;
16242;SDS011;11719;51.052;6.982;2023-06-19T02:15:28;2.50;;;1.97;;
16242;SDS011;11719;51.052;6.982;2023-06-19T02:17:55;3.63;;;2.83;;
16242;SDS011;11719;51.052;6.982;2023-06-19T02:20:24;6.30;;;2.10;;
16242;SDS011;11719;51.052;6.982;2023-06-19T02:22:51;4.53;;;2.63;;
16242;SDS011;11719;51.052;6.982;2023-06-19T02:25:17;4.27;;;3.27;;
16242;SDS011;11719;51.052;6.982;2023-06-19T02:27:43;2.33;;;1.73;;
16242;SDS011;11719;51.052;6.982;2023-06-19T02:30:09;2.23;;;1.80;;
16242;SDS011;11719;51.052;6.982;2023-06-19T02:32:35;4.53;;;3.10;;
16242;SDS011;11719;51.052;6.982;2023-06-19T02:35:01;3.33;;;2.10;;
16242;SDS011;11719;51.052;6.982;2023-06-19T02:37:28;1.70;;;1.60;;
16242;SDS011;11719;51.052;6.982;2023-06-19T02:39:54;2.80;;;2.00;;
16242;SDS011;11719;51.052;6.982;2023-06-19T02:42:20;2.10;;;1.73;;
16242;SDS011;11719;51.052;6.982;2023-06-19T02:44:46;2.37;;;2.03;;
16242;SDS011;11719;51.052;6.982;2023-06-19T02:47:12;2.93;;;2.60;;
16242;SDS011;11719;51.052;6.982;2023-06-19T02:49:37;4.97;;;3.50;;
16242;SDS011;11719;51.052;6.982;2023-06-19T02:52:04;3.60;;;2.77;;
16242;SDS011;11719;51.052;6.982;2023-06-19T03:10:36;3.03;;;2.35;;
16242;SDS011;11719;51.052;6.982;2023-06-19T03:13:44;3.03;;;2.15;;
16242;SDS011;11719;51.052;6.982;2023-06-19T03:33:40;5.30;;;4.10;;
16242;SDS011;11719;51.052;6.982;2023-06-19T03:36:06;5.63;;;3.90;;
16242;SDS011;11719;51.052;6.982;2023-06-19T03:38:35;5.45;;;4.00;;
16242;SDS011;11719;51.052;6.982;2023-06-19T03:41:01;6.90;;;3.47;;
16242;SDS011;11719;51.052;6.982;2023-06-19T03:43:27;2.83;;;2.50;;
16242;SDS011;11719;51.052;6.982;2023-06-19T03:45:53;6.57;;;3.83;;
16242;SDS011;11719;51.052;6.982;2023-06-19T03:48:19;5.63;;;4.17;;
16242;SDS011;11719;51.052;6.982;2023-06-19T03:50:45;5.10;;;3.90;;
16242;SDS011;11719;51.052;6.982;2023-06-19T03:53:10;4.00;;;3.13;;
16242;SDS011;11719;51.052;6.982;2023-06-19T03:55:36;7.00;;;2.57;;
16242;SDS011;11719;51.052;6.982;2023-06-19T03:58:02;4.87;;;2.97;;
16242;SDS011;11719;51.052;6.982;2023-06-19T04:00:28;2.93;;;2.37;;
16242;SDS011;11719;51.052;6.982;2023-06-19T04:02:54;3.13;;;2.27;;
16242;SDS011;11719;51.052;6.982;2023-06-19T04:05:20;3.63;;;2.07;;
16242;SDS011;11719;51.052;6.982;2023-06-19T04:07:47;2.73;;;1.80;;
16242;SDS011;11719;51.052;6.982;2023-06-19T04:10:13;2.60;;;1.63;;
16242;SDS011;11719;51.052;6.982;2023-06-19T04:12:39;2.67;;;1.77;;
16242;SDS011;11719;51.052;6.982;2023-06-19T04:15:06;3.03;;;2.07;;
16242;SDS011;11719;51.052;6.982;2023-06-19T04:17:33;2.30;;;1.80;;
16242;SDS011;11719;51.052;6.982;2023-06-19T04:19:58;2.03;;;1.53;;
16242;SDS011;11719;51.052;6.982;2023-06-19T04:22:24;2.47;;;2.20;;
16242;SDS011;11719;51.052;6.982;2023-06-19T04:24:50;2.93;;;2.20;;
16242;SDS011;11719;51.052;6.982;2023-06-19T04:27:16;2.30;;;1.67;;
16242;SDS011;11719;51.052;6.982;2023-06-19T04:29:42;2.13;;;1.57;;
16242;SDS011;11719;51.052;6.982;2023-06-19T04:32:07;2.47;;;1.57;;
16242;SDS011;11719;51.052;6.982;2023-06-19T04:34:40;2.20;;;1.43;;
16242;SDS011;11719;51.052;6.982;2023-06-19T04:37:11;1.97;;;1.23;;
16242;SDS011;11719;51.052;6.982;2023-06-19T04:39:37;2.50;;;1.30;;
16242;SDS011;11719;51.052;6.982;2023-06-19T04:42:03;2.37;;;1.77;;
16242;SDS011;11719;51.052;6.982;2023-06-19T04:44:29;2.50;;;1.47;;
16242;SDS011;11719;51.052;6.982;2023-06-19T04:46:58;2.80;;;1.60;;
16242;SDS011;11719;51.052;6.982;2023-06-19T04:49:30;1.53;;;1.30;;
16242;SDS011;11719;51.052;6.982;2023-06-19T04:51:57;2.97;;;1.20;;
16242;SDS011;11719;51.052;6.982;2023-06-19T04:54:23;2.83;;;1.40;;
16242;SDS011;11719;51.052;6.982;2023-06-19T04:56:50;1.90;;;1.30;;
16242;SDS011;11719;51.052;6.982;2023-06-19T04:59:19;2.30;;;1.30;;
16242;SDS011;11719;51.052;6.982;2023-06-19T05:01:45;2.60;;;1.60;;
16242;SDS011;11719;51.052;6.982;2023-06-19T05:04:11;4.37;;;1.23;;
16242;SDS011;11719;51.052;6.982;2023-06-19T05:06:36;1.60;;;1.00;;
16242;SDS011;11719;51.052;6.982;2023-06-19T05:09:02;3.03;;;1.40;;
16242;SDS011;11719;51.052;6.982;2023-06-19T05:11:29;1.67;;;1.30;;
16242;SDS011;11719;51.052;6.982;2023-06-19T05:13:55;2.33;;;1.20;;
16242;SDS011;11719;51.052;6.982;2023-06-19T05:16:20;1.67;;;1.30;;
16242;SDS011;11719;51.052;6.982;2023-06-19T05:18:48;3.10;;;1.30;;
16242;SDS011;11719;51.052;6.982;2023-06-19T05:21:14;1.90;;;1.50;;
16242;SDS011;11719;51.052;6.982;2023-06-19T05:23:40;1.70;;;1.13;;
16242;SDS011;11719;51.052;6.982;2023-06-19T05:26:06;1.80;;;1.40;;
16242;SDS011;11719;51.052;6.982;2023-06-19T05:28:32;1.73;;;1.30;;
16242;SDS011;11719;51.052;6.982;2023-06-19T05:30:57;1.90;;;1.47;;
16242;SDS011;11719;51.052;6.982;2023-06-19T05:33:23;1.80;;;1.30;;
16242;SDS011;11719;51.052;6.982;2023-06-19T05:35:49;2.20;;;1.50;;
16242;SDS011;11719;51.052;6.982;2023-06-19T05:38:19;2.03;;;1.10;;
16242;SDS011;11719;51.052;6.982;2023-06-19T05:40:50;3.13;;;1.40;;
16242;SDS011;11719;51.052;6.982;2023-06-19T05:43:17;2.20;;;1.30;;
16242;SDS011;11719;51.052;6.982;2023-06-19T05:45:43;2.10;;;1.33;;
16242;SDS011;11719;51.052;6.982;2023-06-19T05:48:09;1.83;;;1.30;;
16242;SDS011;11719;51.052;6.982;2023-06-19T05:50:35;1.83;;;1.17;;
16242;SDS011;11719;51.052;6.982;2023-06-19T05:53:01;1.90;;;1.23;;
16242;SDS011;11719;51.052;6.982;2023-06-19T05:55:27;3.00;;;1.40;;
16242;SDS011;11719;51.052;6.982;2023-06-19T05:57:53;1.30;;;1.10;;
16242;SDS011;11719;51.052;6.982;2023-06-19T06:00:20;1.70;;;1.10;;
16242;SDS011;11719;51.052;6.982;2023-06-19T06:02:46;1.40;;;0.80;;
16242;SDS011;11719;51.052;6.982;2023-06-19T06:05:11;0.77;;;0.60;;
16242;SDS011;11719;51.052;6.982;2023-06-19T06:07:37;2.43;;;1.00;;
16242;SDS011;11719;51.052;6.982;2023-06-19T06:10:03;1.60;;;0.90;;
16242;SDS011;11719;51.052;6.982;2023-06-19T06:12:30;0.87;;;0.57;;
16242;SDS011;11719;51.052;6.982;2023-06-19T06:14:58;1.67;;;0.90;;
16242;SDS011;11719;51.052;6.982;2023-06-19T06:17:24;1.20;;;0.77;;
16242;SDS011;11719;51.052;6.982;2023-06-19T06:19:50;1.13;;;0.63;;
16242;SDS011;11719;51.052;6.982;2023-06-19T06:22:16;1.57;;;0.70;;
16242;SDS011;11719;51.052;6.982;2023-06-19T06:24:43;1.57;;;0.80;;
16242;SDS011;11719;51.052;6.982;2023-06-19T06:27:09;1.03;;;0.90;;
16242;SDS011;11719;51.052;6.982;2023-06-19T06:29:35;1.20;;;0.70;;
16242;SDS011;11719;51.052;6.982;2023-06-19T06:32:05;0.90;;;0.67;;
16242;SDS011;11719;51.052;6.982;2023-06-19T06:34:35;0.83;;;0.50;;
16242;SDS011;11719;51.052;6.982;2023-06-19T06:37:01;2.03;;;0.80;;
16242;SDS011;11719;51.052;6.982;2023-06-19T06:39:27;0.70;;;0.50;;
16242;SDS011;11719;51.052;6.982;2023-06-19T06:41:53;0.73;;;0.57;;
16242;SDS011;11719;51.052;6.982;2023-06-19T06:44:18;1.00;;;0.60;;
16242;SDS011;11719;51.052;6.982;2023-06-19T06:46:44;1.20;;;1.00;;
16242;SDS011;11719;51.052;6.982;2023-06-19T06:49:11;0.80;;;0.50;;
16242;SDS011;11719;51.052;6.982;2023-06-19T06:51:37;1.17;;;0.60;;
16242;SDS011;11719;51.052;6.982;2023-06-19T06:54:03;1.40;;;0.83;;
16242;SDS011;11719;51.052;6.982;2023-06-19T06:56:29;1.03;;;0.67;;
16242;SDS011;11719;51.052;6.982;2023-06-19T06:58:55;1.03;;;0.63;;
16242;SDS011;11719;51.052;6.982;2023-06-19T07:01:21;1.20;;;0.77;;
16242;SDS011;11719;51.052;6.982;2023-06-19T07:03:46;0.83;;;0.80;;
16242;SDS011;11719;51.052;6.982;2023-06-19T07:06:12;0.97;;;0.67;;
16242;SDS011;11719;51.052;6.982;2023-06-19T07:08:38;1.70;;;0.70;;
16242;SDS011;11719;51.052;6.982;2023-06-19T07:11:05;1.83;;;0.90;;
16242;SDS011;11719;51.052;6.982;2023-06-19T07:13:32;0.87;;;0.60;;
16242;SDS011;11719;51.052;6.982;2023-06-19T07:15:58;1.47;;;0.60;;
16242;SDS011;11719;51.052;6.982;2023-06-19T07:18:26;2.40;;;0.70;;
16242;SDS011;11719;51.052;6.982;2023-06-19T07:20:52;0.63;;;0.40;;
16242;SDS011;11719;51.052;6.982;2023-06-19T07:23:18;1.27;;;0.60;;
16242;SDS011;11719;51.052;6.982;2023-06-19T07:25:45;1.80;;;0.53;;
16242;SDS011;11719;51.052;6.982;2023-06-19T07:28:12;0.60;;;0.50;;
16242;SDS011;11719;51.052;6.982;2023-06-19T07:35:35;1.10;;;0.70;;
16242;SDS011;11719;51.052;6.982;2023-06-19T07:38:00;2.20;;;0.60;;
16242;SDS011;11719;51.052;6.982;2023-06-19T07:40:26;2.10;;;0.70;;
16242;SDS011;11719;51.052;6.982;2023-06-19T07:42:52;0.60;;;0.53;;
16242;SDS011;11719;51.052;6.982;2023-06-19T07:45:18;1.13;;;0.73;;
16242;SDS011;11719;51.052;6.982;2023-06-19T07:47:44;1.37;;;0.93;;
16242;SDS011;11719;51.052;6.982;2023-06-19T07:50:19;1.03;;;0.67;;
16242;SDS011;11719;51.052;6.982;2023-06-19T07:52:44;1.17;;;0.87;;
16242;SDS011;11719;51.052;6.982;2023-06-19T07:55:10;2.13;;;0.70;;
16242;SDS011;11719;51.052;6.982;2023-06-19T07:57:36;1.03;;;0.63;;
16242;SDS011;11719;51.052;6.982;2023-06-19T08:00:03;1.63;;;0.73;;
16242;SDS011;11719;51.052;6.982;2023-06-19T08:02:36;1.63;;;0.70;;
16242;SDS011;11719;51.052;6.982;2023-06-19T08:05:02;1.13;;;0.80;;
16242;SDS011;11719;51.052;6.982;2023-06-19T08:07:28;2.30;;;1.53;;
16242;SDS011;11719;51.052;6.982;2023-06-19T08:09:54;1.40;;;0.90;;
16242;SDS011;11719;51.052;6.982;2023-06-19T08:12:20;0.77;;;0.70;;
16242;SDS011;11719;51.052;6.982;2023-06-19T08:14:45;2.70;;;0.80;;
16242;SDS011;11719;51.052;6.982;2023-06-19T08:17:11;0.70;;;0.70;;
16242;SDS011;11719;51.052;6.982;2023-06-19T08:19:37;4.93;;;1.10;;
16242;SDS011;11719;51.052;6.982;2023-06-19T08:22:04;1.73;;;0.80;;
16242;SDS011;11719;51.052;6.982;2023-06-19T08:24:31;1.80;;;0.87;;
16242;SDS011;11719;51.052;6.982;2023-06-19T08:26:56;1.07;;;0.90;;
16242;SDS011;11719;51.052;6.982;2023-06-19T08:29:22;2.20;;;0.90;;
16242;SDS011;11719;51.052;6.982;2023-06-19T08:31:48;1.53;;;0.93;;
16242;SDS011;11719;51.052;6.982;2023-06-19T08:34:14;1.27;;;1.03;;
16242;SDS011;11719;51.052;6.982;2023-06-19T08:36:40;1.40;;;0.80;;
16242;SDS011;11719;51.052;6.982;2023-06-19T08:39:06;0.87;;;0.77;;
16242;SDS011;11719;51.052;6.982;2023-06-19T08:41:33;1.00;;;0.60;;
16242;SDS011;11719;51.052;6.982;2023-06-19T08:44:02;2.17;;;1.10;;
16242;SDS011;11719;51.052;6.982;2023-06-19T08:46:29;1.13;;;0.93;;
16242;SDS011;11719;51.052;6.982;2023-06-19T08:48:55;1.13;;;0.77;;
16242;SDS011;11719;51.052;6.982;2023-06-19T08:51:22;1.43;;;1.10;;
16242;SDS011;11719;51.052;6.982;2023-06-19T08:53:49;1.57;;;1.10;;
16242;SDS011;11719;51.052;6.982;2023-06-19T08:56:20;1.07;;;0.93;;
16242;SDS011;11719;51.052;6.982;2023-06-19T08:58:46;1.50;;;1.20;;
16242;SDS011;11719;51.052;6.982;2023-06-19T09:01:13;1.73;;;1.27;;
16242;SDS011;11719;51.052;6.982;2023-06-19T09:03:44;1.70;;;1.10;;
16242;SDS011;11719;51.052;6.982;2023-06-19T09:06:14;1.50;;;1.40;;
16242;SDS011;11719;51.052;6.982;2023-06-19T09:08:43;3.07;;;1.57;;
16242;SDS011;11719;51.052;6.982;2023-06-19T09:11:11;1.17;;;1.07;;
16242;SDS011;11719;51.052;6.982;2023-06-19T09:13:37;3.03;;;1.53;;
16242;SDS011;11719;51.052;6.982;2023-06-19T09:16:04;3.97;;;1.53;;
16242;SDS011;11719;51.052;6.982;2023-06-19T09:21:27;1.63;;;1.43;;
16242;SDS011;11719;51.052;6.982;2023-06-19T09:23:53;1.93;;;1.60;;
16242;SDS011;11719;51.052;6.982;2023-06-19T09:26:19;1.77;;;1.30;;
16242;SDS011;11719;51.052;6.982;2023-06-19T09:28:45;2.10;;;1.60;;
16242;SDS011;11719;51.052;6.982;2023-06-19T09:31:12;2.97;;;1.93;;
16242;SDS011;11719;51.052;6.982;2023-06-19T09:33:38;2.07;;;1.40;;
16242;SDS011;11719;51.052;6.982;2023-06-19T09:36:05;4.23;;;1.83;;
16242;SDS011;11719;51.052;6.982;2023-06-19T09:38:33;1.80;;;1.40;;
16242;SDS011;11719;51.052;6.982;2023-06-19T09:41:04;1.80;;;1.53;;
16242;SDS011;11719;51.052;6.982;2023-06-19T09:43:35;3.42;;;1.77;;
16242;SDS011;11719;51.052;6.982;2023-06-19T09:46:04;2.50;;;1.50;;
16242;SDS011;11719;51.052;6.982;2023-06-19T09:48:32;2.73;;;1.83;;
16242;SDS011;11719;51.052;6.982;2023-06-19T09:51:07;3.03;;;1.77;;
16242;SDS011;11719;51.052;6.982;2023-06-19T09:53:49;2.35;;;1.95;;
16242;SDS011;11719;51.052;6.982;2023-06-19T09:56:16;8.55;;;1.65;;
16242;SDS011;11719;51.052;6.982;2023-06-19T09:58:46;2.47;;;1.55;;
16242;SDS011;11719;51.052;6.982;2023-06-19T10:01:15;3.40;;;1.45;;
16242;SDS011;11719;51.052;6.982;2023-06-19T10:03:44;2.80;;;1.60;;
16242;SDS011;11719;51.052;6.982;2023-06-19T10:06:15;6.82;;;2.15;;
16242;SDS011;11719;51.052;6.982;2023-06-19T10:08:42;4.03;;;2.03;;
16242;SDS011;11719;51.052;6.982;2023-06-19T10:11:10;2.03;;;1.50;;
16242;SDS011;11719;51.052;6.982;2023-06-19T10:13:37;3.00;;;2.00;;
16242;SDS011;11719;51.052;6.982;2023-06-19T10:16:05;2.42;;;1.85;;
16242;SDS011;11719;51.052;6.982;2023-06-19T10:18:32;4.43;;;2.15;;
16242;SDS011;11719;51.052;6.982;2023-06-19T10:21:20;2.95;;;2.13;;
16242;SDS011;11719;51.052;6.982;2023-06-19T10:23:53;3.60;;;2.00;;
16242;SDS011;11719;51.052;6.982;2023-06-19T10:26:28;2.55;;;1.60;;
16242;SDS011;11719;51.052;6.982;2023-06-19T10:28:59;1.85;;;1.63;;
16242;SDS011;11719;51.052;6.982;2023-06-19T10:31:25;2.97;;;1.83;;
16242;SDS011;11719;51.052;6.982;2023-06-19T10:33:53;5.50;;;2.00;;
16242;SDS011;11719;51.052;6.982;2023-06-19T10:36:20;3.22;;;2.05;;
16242;SDS011;11719;51.052;6.982;2023-06-19T10:38:50;2.95;;;1.92;;
16242;SDS011;11719;51.052;6.982;2023-06-19T10:41:20;2.17;;;1.58;;
16242;SDS011;11719;51.052;6.982;2023-06-19T10:43:56;2.42;;;1.80;;
16242;SDS011;11719;51.052;6.982;2023-06-19T10:46:29;2.97;;;1.98;;
16242;SDS011;11719;51.052;6.982;2023-06-19T10:48:59;2.22;;;1.60;;
16242;SDS011;11719;51.052;6.982;2023-06-19T10:51:29;4.35;;;2.20;;
16242;SDS011;11719;51.052;6.982;2023-06-19T10:54:02;3.58;;;1.83;;
16242;SDS011;11719;51.052;6.982;2023-06-19T10:56:28;2.58;;;1.80;;
16242;SDS011;11719;51.052;6.982;2023-06-19T10:58:58;1.48;;;1.33;;
16242;SDS011;11719;51.052;6.982;2023-06-19T11:01:31;1.65;;;1.50;;
16242;SDS011;11719;51.052;6.982;2023-06-19T11:04:06;2.33;;;1.60;;
16242;SDS011;11719;51.052;6.982;2023-06-19T11:06:34;6.45;;;1.60;;
16242;SDS011;11719;51.052;6.982;2023-06-19T11:09:01;1.92;;;1.10;;
16242;SDS011;11719;51.052;6.982;2023-06-19T11:11:36;3.47;;;1.98;;
16242;SDS011;11719;51.052;6.982;2023-06-19T11:14:20;3.50;;;2.00;;
16242;SDS011;11719;51.052;6.982;2023-06-19T11:16:46;2.28;;;1.70;;
16242;SDS011;11719;51.052;6.982;2023-06-19T11:19:16;4.13;;;1.88;;
16242;SDS011;11719;51.052;6.982;2023-06-19T11:21:45;5.75;;;2.10;;
16242;SDS011;11719;51.052;6.982;2023-06-19T11:24:16;6.25;;;1.73;;
16242;SDS011;11719;51.052;6.982;2023-06-19T11:26:47;2.85;;;1.60;;
16242;SDS011;11719;51.052;6.982;2023-06-19T11:29:22;6.70;;;2.03;;
16242;SDS011;11719;51.052;6.982;2023-06-19T11:31:50;4.40;;;2.10;;
16242;SDS011;11719;51.052;6.982;2023-06-19T11:34:37;2.10;;;1.48;;
16242;SDS011;11719;51.052;6.982;2023-06-19T11:37:16;2.00;;;1.83;;
16242;SDS011;11719;51.052;6.982;2023-06-19T11:39:43;3.60;;;1.60;;
16242;SDS011;11719;51.052;6.982;2023-06-19T11:42:10;2.22;;;1.88;;
16242;SDS011;11719;51.052;6.982;2023-06-19T11:44:52;2.35;;;1.67;;
16242;SDS011;11719;51.052;6.982;2023-06-19T11:47:22;2.00;;;1.58;;
16242;SDS011;11719;51.052;6.982;2023-06-19T11:49:48;2.92;;;1.83;;
16242;SDS011;11719;51.052;6.982;2023-06-19T11:52:15;2.83;;;1.75;;
16242;SDS011;11719;51.052;6.982;2023-06-19T11:54:41;2.80;;;1.55;;
16242;SDS011;11719;51.052;6.982;2023-06-19T11:57:08;3.33;;;2.20;;
16242;SDS011;11719;51.052;6.982;2023-06-19T11:59:40;2.80;;;1.70;;
16242;SDS011;11719;51.052;6.982;2023-06-19T12:02:07;4.57;;;1.50;;
16242;SDS011;11719;51.052;6.982;2023-06-19T12:04:34;2.25;;;1.60;;
16242;SDS011;11719;51.052;6.982;2023-06-19T12:07:00;2.83;;;1.50;;
16242;SDS011;11719;51.052;6.982;2023-06-19T12:09:28;3.08;;;2.13;;
16242;SDS011;11719;51.052;6.982;2023-06-19T12:11:56;2.78;;;1.65;;
16242;SDS011;11719;51.052;6.982;2023-06-19T12:14:23;2.05;;;1.77;;
16242;SDS011;11719;51.052;6.982;2023-06-19T12:16:49;3.15;;;1.45;;
16242;SDS011;11719;51.052;6.982;2023-06-19T12:19:15;3.08;;;1.73;;
16242;SDS011;11719;51.052;6.982;2023-06-19T12:21:41;2.60;;;1.80;;
16242;SDS011;11719;51.052;6.982;2023-06-19T12:24:07;2.20;;;1.60;;
16242;SDS011;11719;51.052;6.982;2023-06-19T12:26:36;2.35;;;1.67;;
16242;SDS011;11719;51.052;6.982;2023-06-19T12:29:02;1.98;;;1.42;;
16242;SDS011;11719;51.052;6.982;2023-06-19T12:31:29;2.70;;;1.80;;
16242;SDS011;11719;51.052;6.982;2023-06-19T12:33:56;2.78;;;1.80;;
16242;SDS011;11719;51.052;6.982;2023-06-19T12:36:22;3.40;;;1.65;;
16242;SDS011;11719;51.052;6.982;2023-06-19T12:38:48;2.45;;;1.80;;
16242;SDS011;11719;51.052;6.982;2023-06-19T12:41:14;2.47;;;1.50;;
16242;SDS011;11719;51.052;6.982;2023-06-19T12:43:40;1.77;;;1.33;;
16242;SDS011;11719;51.052;6.982;2023-06-19T12:46:06;2.25;;;1.52;;
16242;SDS011;11719;51.052;6.982;2023-06-19T12:48:32;3.28;;;1.92;;
16242;SDS011;11719;51.052;6.982;2023-06-19T12:50:58;3.85;;;1.70;;
16242;SDS011;11719;51.052;6.982;2023-06-19T12:53:24;3.38;;;1.70;;
16242;SDS011;11719;51.052;6.982;2023-06-19T12:55:54;3.58;;;1.73;;
16242;SDS011;11719;51.052;6.982;2023-06-19T12:58:21;2.63;;;1.80;;
16242;SDS011;11719;51.052;6.982;2023-06-19T13:00:47;2.47;;;1.73;;
16242;SDS011;11719;51.052;6.982;2023-06-19T13:03:13;2.88;;;1.73;;
16242;SDS011;11719;51.052;6.982;2023-06-19T13:05:39;2.40;;;1.77;;
16242;SDS011;11719;51.052;6.982;2023-06-19T13:08:05;4.22;;;1.60;;
16242;SDS011;11719;51.052;6.982;2023-06-19T13:10:30;2.83;;;1.85;;
16242;SDS011;11719;51.052;6.982;2023-06-19T13:12:56;1.63;;;1.50;;
16242;SDS011;11719;51.052;6.982;2023-06-19T13:15:25;1.92;;;1.40;;
16242;SDS011;11719;51.052;6.982;2023-06-19T13:17:52;2.70;;;2.00;;
16242;SDS011;11719;51.052;6.982;2023-06-19T13:20:18;1.88;;;1.60;;
16242;SDS011;11719;51.052;6.982;2023-06-19T13:22:44;2.30;;;1.27;;
16242;SDS011;11719;51.052;6.982;2023-06-19T13:25:10;2.15;;;1.73;;
16242;SDS011;11719;51.052;6.982;2023-06-19T13:27:36;2.72;;;1.73;;
16242;SDS011;11719;51.052;6.982;2023-06-19T13:30:02;3.30;;;1.77;;
16242;SDS011;11719;51.052;6.982;2023-06-19T13:32:28;2.83;;;1.88;;
16242;SDS011;11719;51.052;6.982;2023-06-19T13:34:53;2.60;;;1.80;;
16242;SDS011;11719;51.052;6.982;2023-06-19T13:37:20;3.13;;;1.50;;
16242;SDS011;11719;51.052;6.982;2023-06-19T13:39:46;4.70;;;1.58;;
16242;SDS011;11719;51.052;6.982;2023-06-19T13:42:11;3.05;;;2.00;;
16242;SDS011;11719;51.052;6.982;2023-06-19T13:44:38;3.25;;;1.75;;
16242;SDS011;11719;51.052;6.982;2023-06-19T13:47:04;4.38;;;2.13;;
16242;SDS011;11719;51.052;6.982;2023-06-19T13:49:30;2.85;;;1.50;;
16242;SDS011;11719;51.052;6.982;2023-06-19T13:51:56;1.90;;;1.55;;
16242;SDS011;11719;51.052;6.982;2023-06-19T13:54:22;3.10;;;1.33;;
16242;SDS011;11719;51.052;6.982;2023-06-19T13:56:48;1.88;;;1.45;;
16242;SDS011;11719;51.052;6.982;2023-06-19T13:59:14;3.53;;;1.30;;
16242;SDS011;11719;51.052;6.982;2023-06-19T14:01:40;3.60;;;1.48;;
16242;SDS011;11719;51.052;6.982;2023-06-19T14:04:06;4.30;;;1.70;;
16242;SDS011;11719;51.052;6.982;2023-06-19T14:06:33;3.47;;;1.40;;
16242;SDS011;11719;51.052;6.982;2023-06-19T14:09:00;2.47;;;1.48;;
16242;SDS011;11719;51.052;6.982;2023-06-19T14:11:26;2.17;;;1.70;;
16242;SDS011;11719;51.052;6.982;2023-06-19T14:13:54;1.88;;;1.60;;
16242;SDS011;11719;51.052;6.982;2023-06-19T14:16:20;2.90;;;1.90;;
16242;SDS011;11719;51.052;6.982;2023-06-19T14:18:46;1.80;;;1.35;;
16242;SDS011;11719;51.052;6.982;2023-06-19T14:21:12;5.88;;;1.65;;
16242;SDS011;11719;51.052;6.982;2023-06-19T14:23:37;3.20;;;1.42;;
16242;SDS011;11719;51.052;6.982;2023-06-19T14:26:11;2.92;;;1.67;;
16242;SDS011;11719;51.052;6.982;2023-06-19T14:28:37;2.90;;;1.77;;
16242;SDS011;11719;51.052;6.982;2023-06-19T14:31:04;2.92;;;1.83;;
16242;SDS011;11719;51.052;6.982;2023-06-19T14:33:30;4.68;;;1.80;;
16242;SDS011;11719;51.052;6.982;2023-06-19T14:35:58;2.25;;;1.50;;
16242;SDS011;11719;51.052;6.982;2023-06-19T14:38:24;1.75;;;1.33;;
16242;SDS011;11719;51.052;6.982;2023-06-19T14:40:53;1.90;;;1.50;;
16242;SDS011;11719;51.052;6.982;2023-06-19T14:43:19;1.73;;;1.60;;
16242;SDS011;11719;51.052;6.982;2023-06-19T14:45:44;2.28;;;1.40;;
16242;SDS011;11719;51.052;6.982;2023-06-19T14:48:10;1.77;;;1.40;;
16242;SDS011;11719;51.052;6.982;2023-06-19T14:50:36;1.77;;;1.50;;
16242;SDS011;11719;51.052;6.982;2023-06-19T14:53:02;3.03;;;1.60;;
16242;SDS011;11719;51.052;6.982;2023-06-19T14:55:28;3.47;;;1.98;;
16242;SDS011;11719;51.052;6.982;2023-06-19T14:57:54;2.38;;;1.50;;
16242;SDS011;11719;51.052;6.982;2023-06-19T15:00:19;3.33;;;1.83;;
16242;SDS011;11719;51.052;6.982;2023-06-19T15:02:45;1.88;;;1.60;;
16242;SDS011;11719;51.052;6.982;2023-06-19T15:05:11;2.88;;;1.80;;
16242;SDS011;11719;51.052;6.982;2023-06-19T15:07:37;2.10;;;1.33;;
16242;SDS011;11719;51.052;6.982;2023-06-19T15:10:03;2.78;;;1.67;;
16242;SDS011;11719;51.052;6.982;2023-06-19T15:12:30;2.13;;;1.55;;
16242;SDS011;11719;51.052;6.982;2023-06-19T15:14:57;2.08;;;1.55;;
16242;SDS011;11719;51.052;6.982;2023-06-19T15:17:23;1.60;;;1.17;;
16242;SDS011;11719;51.052;6.982;2023-06-19T15:19:48;2.75;;;1.63;;
16242;SDS011;11719;51.052;6.982;2023-06-19T15:22:14;2.35;;;1.50;;
16242;SDS011;11719;51.052;6.982;2023-06-19T15:24:40;3.35;;;1.83;;
16242;SDS011;11719;51.052;6.982;2023-06-19T15:27:06;2.67;;;1.42;;
16242;SDS011;11719;51.052;6.982;2023-06-19T15:29:32;3.38;;;1.90;;
16242;SDS011;11719;51.052;6.982;2023-06-19T15:31:57;2.38;;;1.65;;
16242;SDS011;11719;51.052;6.982;2023-06-19T15:34:23;3.92;;;1.65;;